Time;durP1;ratioP1;P1;durP2;ratioP2;P2;SDS_P1;SDS_P2;PMS_P1;PMS_P2;Temp;Humidity;BMP_temperature;BMP_pressure;BME280_temperature;BME280_humidity;BME280_pressure;Samples;Min_cycle;Max_cycle;Signal;HPM_P1;HPM_P2
2022/11/15 00:00:15;;;;;;;22.40;13.97;;;5.40;99.90;;;;;;6155209;23;20198;-63
2022/11/15 00:02:41;;;;;;;21.67;14.00;;;5.40;99.90;;;;;;6154962;23;20216;-64
2022/11/15 00:05:10;;;;;;;18.53;13.97;;;5.40;99.90;;;;;;6155576;23;20179;-64
2022/11/15 00:07:36;;;;;;;19.63;13.30;;;5.50;99.90;;;;;;6154993;23;20179;-63
2022/11/15 00:10:04;;;;;;;19.77;13.97;;;5.50;99.90;;;;;;6155060;23;20181;-64
2022/11/15 00:12:30;;;;;;;24.73;14.13;;;5.50;99.90;;;;;;6155336;23;20179;-65
2022/11/15 00:14:57;;;;;;;24.07;14.90;;;5.50;99.90;;;;;;6155190;23;20185;-63
2022/11/15 00:17:24;;;;;;;15.60;12.53;;;5.60;99.90;;;;;;6155270;23;20179;-64
2022/11/15 00:19:51;;;;;;;21.03;13.73;;;5.60;99.90;;;;;;6155006;23;20199;-64
2022/11/15 00:22:19;;;;;;;18.90;12.73;;;5.60;99.90;;;;;;6154355;23;20202;-64
2022/11/15 00:24:45;;;;;;;19.30;13.70;;;5.70;99.90;;;;;;6154563;23;20294;-63
2022/11/15 00:27:12;;;;;;;18.77;13.40;;;5.70;99.90;;;;;;6155006;23;20196;-64
2022/11/15 00:29:43;;;;;;;20.37;12.87;;;5.70;99.90;;;;;;6154141;23;20189;-64
2022/11/15 00:32:09;;;;;;;17.23;12.23;;;5.70;99.90;;;;;;6155024;23;20167;-64
2022/11/15 00:34:36;;;;;;;18.63;12.53;;;5.70;99.90;;;;;;6155058;23;20186;-64
2022/11/15 00:37:03;;;;;;;17.30;11.07;;;5.70;99.90;;;;;;6154517;23;20187;-64
2022/11/15 00:39:31;;;;;;;16.20;11.20;;;5.70;99.90;;;;;;6154347;23;20678;-65
2022/11/15 00:41:58;;;;;;;21.90;11.27;;;5.70;99.90;;;;;;6154589;23;20648;-65
2022/11/15 00:44:25;;;;;;;16.57;11.40;;;5.60;99.90;;;;;;6154960;23;20264;-66
2022/11/15 00:46:51;;;;;;;19.93;11.77;;;5.60;99.90;;;;;;6154393;23;20285;-65
2022/11/15 00:49:18;;;;;;;18.80;12.30;;;5.60;99.90;;;;;;6155213;23;20178;-66
2022/11/15 00:51:45;;;;;;;18.07;12.50;;;5.60;99.90;;;;;;6154461;23;20181;-66
2022/11/15 00:54:12;;;;;;;20.43;12.27;;;5.60;99.90;;;;;;6154576;23;20185;-66
2022/11/15 00:56:40;;;;;;;18.90;12.63;;;5.60;99.90;;;;;;6153892;23;20183;-66
2022/11/15 00:59:07;;;;;;;19.00;12.50;;;5.60;99.90;;;;;;6155117;23;20553;-66
2022/11/15 01:01:34;;;;;;;16.97;11.87;;;5.60;99.90;;;;;;6154471;23;20261;-65
2022/11/15 01:04:01;;;;;;;18.43;11.97;;;5.60;99.90;;;;;;6154099;23;20183;-66
2022/11/15 01:06:28;;;;;;;17.13;11.50;;;5.70;99.90;;;;;;6153421;23;20190;-65
2022/11/15 01:08:55;;;;;;;16.83;11.80;;;5.60;99.90;;;;;;6154752;23;20679;-66
2022/11/15 01:11:22;;;;;;;16.77;11.17;;;5.60;99.90;;;;;;6154628;23;20175;-66
2022/11/15 01:13:51;;;;;;;15.67;10.20;;;5.60;99.90;;;;;;6154426;23;20237;-66
2022/11/15 01:16:19;;;;;;;16.03;9.93;;;5.60;99.90;;;;;;6153522;23;20554;-65
2022/11/15 01:18:46;;;;;;;15.70;9.97;;;5.60;99.90;;;;;;6154721;23;20191;-65
2022/11/15 01:21:15;;;;;;;16.90;10.70;;;5.60;99.90;;;;;;6154133;23;20249;-66
2022/11/15 01:23:43;;;;;;;15.60;9.63;;;5.60;99.90;;;;;;6154298;23;20182;-65
2022/11/15 01:26:13;;;;;;;14.73;10.00;;;5.60;99.90;;;;;;6154219;23;20182;-65
2022/11/15 01:28:41;;;;;;;14.13;10.17;;;5.60;99.90;;;;;;6154011;23;20182;-65
2022/11/15 01:31:14;;;;;;;15.97;10.87;;;5.60;99.90;;;;;;6154285;23;20397;-66
2022/11/15 01:33:41;;;;;;;18.00;11.83;;;5.60;99.90;;;;;;6154105;23;20163;-64
2022/11/15 01:36:12;;;;;;;17.03;11.17;;;5.60;99.90;;;;;;6153630;23;20179;-66
2022/11/15 01:38:39;;;;;;;16.67;11.47;;;5.60;99.90;;;;;;6154429;23;20525;-66
2022/11/15 01:41:06;;;;;;;15.67;10.43;;;5.60;99.90;;;;;;6153795;23;20672;-65
2022/11/15 01:43:35;;;;;;;18.20;11.37;;;5.70;99.90;;;;;;6154209;23;20186;-64
2022/11/15 01:46:06;;;;;;;19.67;11.33;;;5.70;99.90;;;;;;6153536;23;20211;-67
2022/11/15 01:48:35;;;;;;;18.10;9.97;;;5.70;99.90;;;;;;6154293;23;20167;-65
2022/11/15 01:51:07;;;;;;;15.27;10.53;;;5.70;99.90;;;;;;6154215;23;20545;-65
2022/11/15 01:53:38;;;;;;;14.23;9.47;;;5.70;99.90;;;;;;6152564;23;20175;-66
2022/11/15 01:56:11;;;;;;;15.87;9.77;;;5.70;99.90;;;;;;6153761;23;20234;-65
2022/11/15 01:58:39;;;;;;;15.20;10.57;;;5.80;99.90;;;;;;6154351;23;20253;-65
2022/11/15 02:01:06;;;;;;;14.23;9.63;;;5.80;99.90;;;;;;6154125;23;20210;-65
2022/11/15 02:03:43;;;;;;;15.67;10.00;;;5.70;99.90;;;;;;6154055;23;20625;-66
2022/11/15 02:06:10;;;;;;;13.30;9.43;;;5.70;99.90;;;;;;6153228;23;20166;-65
2022/11/15 02:08:37;;;;;;;11.77;8.83;;;5.70;99.90;;;;;;6153949;23;20187;-65
2022/11/15 02:11:08;;;;;;;14.00;9.33;;;5.70;99.90;;;;;;6154152;23;20598;-65
2022/11/15 02:13:36;;;;;;;13.47;9.37;;;5.70;99.90;;;;;;6153713;23;20174;-65
2022/11/15 02:16:14;;;;;;;14.23;9.60;;;5.80;99.90;;;;;;6153277;23;20179;-65
2022/11/15 02:18:50;;;;;;;16.43;9.40;;;5.80;99.90;;;;;;6153991;23;20166;-67
2022/11/15 02:21:29;;;;;;;13.60;9.90;;;5.80;99.90;;;;;;6153892;23;20637;-67
2022/11/15 02:24:47;;;;;;;12.40;9.43;;;5.70;99.90;;;;;;6153775;23;20214;-66
2022/11/15 02:27:46;;;;;;;16.10;10.33;;;5.70;99.90;;;;;;6061090;23;20181;-65
2022/11/15 02:30:38;;;;;;;18.57;10.20;;;5.80;99.90;;;;;;6151794;23;20233;-65
2022/11/15 02:33:15;;;;;;;16.90;10.03;;;5.70;99.90;;;;;;6154046;23;20163;-65
2022/11/15 02:35:51;;;;;;;15.60;10.77;;;5.70;99.90;;;;;;6153837;23;20222;-65
2022/11/15 02:38:23;;;;;;;17.40;11.33;;;5.60;99.90;;;;;;6153558;23;20167;-65
2022/11/15 02:40:55;;;;;;;17.63;10.73;;;5.60;99.90;;;;;;6153768;23;20187;-65
2022/11/15 02:46:19;;;;;;;16.93;10.93;;;5.40;99.90;;;;;;6152993;23;20673;-66
2022/11/15 02:48:47;;;;;;;16.50;10.87;;;5.40;99.90;;;;;;6154302;23;20217;-65
2022/11/15 02:51:15;;;;;;;17.90;11.13;;;5.30;99.90;;;;;;6153486;23;20618;-67
2022/11/15 02:53:42;;;;;;;20.13;11.80;;;5.30;99.90;;;;;;6153154;23;20182;-67
2022/11/15 02:56:12;;;;;;;18.67;12.30;;;5.30;99.90;;;;;;6153040;23;20626;-65
2022/11/15 02:59:19;;;;;;;18.60;12.57;;;5.30;99.90;;;;;;6154067;23;20689;-65
2022/11/15 03:01:57;;;;;;;15.77;11.60;;;5.20;99.90;;;;;;6138831;23;20649;-66
2022/11/15 03:04:35;;;;;;;18.20;12.07;;;5.20;99.90;;;;;;6153119;23;20241;-66
2022/11/15 03:07:08;;;;;;;19.87;12.17;;;5.20;99.90;;;;;;6151669;23;20163;-64
2022/11/15 03:09:41;;;;;;;21.90;13.37;;;5.10;99.90;;;;;;6154664;23;20171;-65
2022/11/15 03:12:14;;;;;;;17.37;12.43;;;5.10;99.90;;;;;;6155782;23;20234;-66
2022/11/15 06:07:27;;;;;;;30.83;16.67;;;4.20;99.90;;;;;;5128173;27;20611;-65
2022/11/15 06:09:54;;;;;;;31.30;16.63;;;4.90;99.90;;;;;;5129413;28;20234;-65
2022/11/15 06:12:21;;;;;;;32.37;17.20;;;4.90;99.90;;;;;;5125926;28;20249;-66
2022/11/15 06:14:48;;;;;;;31.07;16.47;;;5.00;99.90;;;;;;5103162;28;20195;-65
2022/11/15 06:17:14;;;;;;;29.70;16.17;;;5.10;99.90;;;;;;5102077;28;20229;-65
2022/11/15 06:19:41;;;;;;;29.33;16.20;;;5.10;99.90;;;;;;5108542;28;20199;-64
2022/11/15 06:22:09;;;;;;;30.03;16.97;;;5.20;99.90;;;;;;5108181;28;20202;-66
2022/11/15 06:24:37;;;;;;;28.17;15.73;;;5.30;99.90;;;;;;5102509;28;20927;-65
2022/11/15 06:27:04;;;;;;;27.57;15.03;;;5.30;99.90;;;;;;5101665;28;20234;-65
2022/11/15 06:29:31;;;;;;;26.83;15.20;;;5.40;99.90;;;;;;5107019;28;20206;-65
2022/11/15 06:31:57;;;;;;;28.97;16.37;;;5.40;99.90;;;;;;5107128;28;20212;-66
2022/11/15 06:34:24;;;;;;;28.80;17.03;;;5.40;99.90;;;;;;5121139;28;20211;-65
2022/11/15 06:36:51;;;;;;;33.40;17.60;;;5.40;99.90;;;;;;5129046;28;20593;-65
2022/11/15 06:39:18;;;;;;;27.77;16.63;;;5.50;99.90;;;;;;5124717;28;20688;-65
2022/11/15 06:41:46;;;;;;;29.03;17.03;;;5.50;99.90;;;;;;5127364;28;20199;-65
2022/11/15 06:44:12;;;;;;;30.93;18.00;;;5.50;99.90;;;;;;5105118;28;20206;-68
2022/11/15 06:46:39;;;;;;;29.33;17.50;;;5.60;99.90;;;;;;5108662;28;20229;-65
2022/11/15 06:49:06;;;;;;;28.47;17.73;;;5.50;99.90;;;;;;5106827;28;20218;-65
2022/11/15 06:51:33;;;;;;;29.53;16.97;;;5.60;99.90;;;;;;5108078;28;20210;-64
2022/11/15 06:54:00;;;;;;;29.90;19.40;;;5.50;99.90;;;;;;5105498;28;20893;-66
2022/11/15 06:56:26;;;;;;;30.93;19.10;;;5.60;99.90;;;;;;5108466;28;20556;-66
2022/11/15 06:58:55;;;;;;;29.43;18.10;;;5.60;99.90;;;;;;5107090;28;20206;-66
2022/11/15 07:01:22;;;;;;;27.83;18.47;;;5.60;99.90;;;;;;5106795;28;20203;-66
2022/11/15 07:03:49;;;;;;;27.00;17.83;;;5.60;99.90;;;;;;5107713;28;20204;-66
2022/11/15 07:06:16;;;;;;;25.93;17.77;;;5.60;99.90;;;;;;5106302;28;20243;-67
2022/11/15 07:08:43;;;;;;;31.50;17.93;;;5.60;99.90;;;;;;5091262;28;20200;-65
2022/11/15 07:11:10;;;;;;;29.53;18.60;;;5.60;99.90;;;;;;5101493;28;20208;-66
2022/11/15 07:13:37;;;;;;;31.20;20.70;;;5.60;99.90;;;;;;5094139;28;20294;-66
2022/11/15 07:16:08;;;;;;;30.73;19.80;;;5.70;99.90;;;;;;5094301;28;20581;-67
2022/11/15 07:18:36;;;;;;;30.60;20.17;;;5.70;99.90;;;;;;5093538;28;20234;-66
2022/11/15 07:21:03;;;;;;;32.33;20.97;;;5.70;99.90;;;;;;5082649;28;20204;-66
2022/11/15 07:23:30;;;;;;;32.17;21.07;;;5.70;99.90;;;;;;5094248;28;20235;-66
2022/11/15 07:25:58;;;;;;;37.80;22.00;;;5.70;99.90;;;;;;5093582;28;20224;-66
2022/11/15 07:28:25;;;;;;;38.33;22.87;;;5.70;99.90;;;;;;5093851;28;20204;-66
2022/11/15 07:30:52;;;;;;;37.30;23.77;;;5.80;99.90;;;;;;5101493;28;20275;-66
2022/11/15 07:33:20;;;;;;;37.57;23.73;;;5.80;99.90;;;;;;5097243;28;20585;-67
2022/11/15 07:35:49;;;;;;;37.07;22.53;;;5.80;99.90;;;;;;5112955;28;20199;-65
2022/11/15 07:38:19;;;;;;;35.37;23.97;;;5.80;99.90;;;;;;5114594;28;20207;-66
2022/11/15 07:40:46;;;;;;;33.60;22.07;;;5.80;99.90;;;;;;5093778;28;20262;-66
2022/11/15 07:43:13;;;;;;;33.73;21.43;;;5.70;99.90;;;;;;5090345;28;20207;-68
2022/11/15 07:45:42;;;;;;;32.23;20.77;;;5.70;99.90;;;;;;5104141;28;20219;-66
2022/11/15 07:48:09;;;;;;;34.17;19.73;;;5.70;99.90;;;;;;5114172;28;20319;-65
2022/11/15 07:50:37;;;;;;;31.53;20.17;;;5.70;99.90;;;;;;5106778;28;20212;-66
2022/11/15 07:53:04;;;;;;;33.13;18.83;;;5.70;99.90;;;;;;5093523;28;20211;-67
2022/11/15 07:55:30;;;;;;;32.30;19.43;;;5.70;99.90;;;;;;5106457;28;20288;-66
2022/11/15 07:58:02;;;;;;;30.53;19.33;;;5.70;99.90;;;;;;5113585;28;20203;-66
2022/11/15 08:00:29;;;;;;;29.90;19.27;;;5.70;99.90;;;;;;5101707;28;20212;-66
2022/11/15 08:03:02;;;;;;;28.43;19.10;;;5.60;99.90;;;;;;5092493;28;20199;-66
2022/11/15 08:05:29;;;;;;;33.43;19.43;;;5.60;99.90;;;;;;5101373;28;20574;-67
2022/11/15 08:07:58;;;;;;;27.50;18.63;;;5.50;99.90;;;;;;5113686;28;20191;-67
2022/11/15 08:10:25;;;;;;;31.40;19.20;;;5.50;99.90;;;;;;5102665;28;20200;-66
2022/11/15 08:12:58;;;;;;;27.50;17.70;;;5.50;99.90;;;;;;5113089;28;20215;-66
2022/11/15 08:15:25;;;;;;;29.63;18.57;;;5.40;99.90;;;;;;5091978;28;20227;-67
2022/11/15 08:17:55;;;;;;;28.17;18.80;;;5.40;99.90;;;;;;5091854;28;20694;-65
2022/11/15 08:20:22;;;;;;;29.47;19.33;;;5.40;99.90;;;;;;5107774;28;20398;-67
2022/11/15 08:22:49;;;;;;;27.60;19.03;;;5.50;99.90;;;;;;5092557;28;20215;-67
2022/11/15 08:25:17;;;;;;;31.60;20.17;;;5.40;99.90;;;;;;5101822;28;20223;-66
2022/11/15 08:27:44;;;;;;;30.70;19.90;;;5.50;99.90;;;;;;5113010;28;20214;-66
2022/11/15 08:30:13;;;;;;;27.40;18.07;;;5.40;99.90;;;;;;5112500;28;20283;-67
2022/11/15 08:32:40;;;;;;;28.80;18.80;;;5.40;99.90;;;;;;5093187;28;20309;-67
2022/11/15 08:35:08;;;;;;;29.30;19.63;;;5.40;99.90;;;;;;5112191;28;20207;-66
2022/11/15 08:37:35;;;;;;;29.97;19.23;;;5.40;99.90;;;;;;5113053;28;20215;-66
2022/11/15 08:40:01;;;;;;;26.00;17.50;;;5.40;99.90;;;;;;5113242;28;20210;-65
2022/11/15 08:42:29;;;;;;;26.90;17.37;;;5.40;99.90;;;;;;5093146;28;20211;-65
2022/11/15 08:44:56;;;;;;;23.83;16.33;;;5.40;99.90;;;;;;5108302;28;20207;-66
2022/11/15 08:47:23;;;;;;;23.40;16.30;;;5.40;99.90;;;;;;5112762;28;20223;-65
2022/11/15 08:49:50;;;;;;;24.40;16.00;;;5.40;99.90;;;;;;5112556;28;20199;-68
2022/11/15 08:52:17;;;;;;;24.87;16.10;;;5.40;99.90;;;;;;5093314;28;20204;-68
2022/11/15 08:54:44;;;;;;;25.00;16.80;;;5.40;99.90;;;;;;5091131;28;20208;-68
2022/11/15 08:57:11;;;;;;;25.00;17.20;;;5.40;99.90;;;;;;5092767;28;20206;-67
2022/11/15 08:59:39;;;;;;;25.97;18.03;;;5.40;99.90;;;;;;5091918;28;20208;-67
2022/11/15 09:02:06;;;;;;;27.23;18.53;;;5.50;99.90;;;;;;5091360;28;20204;-67
2022/11/15 09:04:34;;;;;;;28.07;17.87;;;5.50;99.90;;;;;;5091370;28;20310;-66
2022/11/15 09:07:00;;;;;;;26.37;17.87;;;5.50;99.90;;;;;;5094817;28;20675;-66
2022/11/15 09:09:27;;;;;;;24.10;15.90;;;5.60;99.90;;;;;;5071697;28;20204;-70
2022/11/15 09:11:54;;;;;;;24.30;16.20;;;5.60;99.90;;;;;;5083825;28;20214;-66
2022/11/15 09:14:21;;;;;;;24.07;15.40;;;5.60;99.90;;;;;;5092237;28;20227;-68
2022/11/15 09:16:49;;;;;;;22.30;15.83;;;5.70;99.90;;;;;;5092048;28;20511;-67
2022/11/15 09:19:15;;;;;;;23.63;16.23;;;5.70;99.90;;;;;;5090501;28;20200;-67
2022/11/15 09:21:42;;;;;;;27.50;17.17;;;5.70;99.90;;;;;;5091602;28;20202;-67
2022/11/15 09:24:09;;;;;;;25.07;16.33;;;5.80;99.90;;;;;;5112048;28;20318;-67
2022/11/15 09:26:36;;;;;;;27.63;17.20;;;5.80;99.90;;;;;;5107769;28;20226;-65
2022/11/15 09:29:03;;;;;;;25.57;16.50;;;5.80;99.90;;;;;;5091526;28;20653;-66
2022/11/15 09:31:30;;;;;;;27.70;17.87;;;5.80;99.90;;;;;;5090365;28;20285;-67
2022/11/15 09:33:58;;;;;;;24.40;16.27;;;5.90;99.90;;;;;;5092042;28;20204;-67
2022/11/15 09:36:25;;;;;;;24.33;17.17;;;5.90;99.90;;;;;;5091780;28;20291;-67
2022/11/15 09:38:52;;;;;;;29.30;19.50;;;5.90;99.90;;;;;;5092003;28;20204;-66
2022/11/15 09:41:48;;;;;;;29.70;19.20;;;5.90;99.90;;;;;;5089213;28;20200;-66
2022/11/15 09:44:38;;;;;;;31.43;18.93;;;5.90;99.90;;;;;;5077235;28;20200;-65
2022/11/15 09:47:25;;;;;;;32.63;19.43;;;5.90;99.90;;;;;;5087607;28;20215;-67
2022/11/15 09:49:55;;;;;;;32.30;19.30;;;5.90;99.90;;;;;;5091516;28;20188;-67
2022/11/15 09:52:22;;;;;;;31.23;19.90;;;5.90;99.90;;;;;;5090881;28;20220;-67
2022/11/15 09:54:52;;;;;;;32.17;19.80;;;5.90;99.90;;;;;;5091870;28;20204;-67
2022/11/15 09:57:25;;;;;;;31.90;20.13;;;5.90;99.90;;;;;;5091945;28;20200;-65
2022/11/15 10:00:01;;;;;;;33.03;20.70;;;5.90;99.90;;;;;;5091922;28;20192;-66
2022/11/15 10:02:43;;;;;;;34.10;19.53;;;5.90;99.90;;;;;;5089179;28;20227;-67
2022/11/15 10:05:17;;;;;;;32.77;19.53;;;6.00;99.90;;;;;;5092538;28;20208;-67
2022/11/15 10:07:51;;;;;;;30.77;18.40;;;6.00;99.90;;;;;;5091904;28;20669;-67
2022/11/15 10:10:26;;;;;;;32.53;18.90;;;6.10;99.90;;;;;;5089300;28;20657;-67
2022/11/15 10:12:54;;;;;;;29.30;18.30;;;6.10;99.90;;;;;;5088849;28;20205;-68
2022/11/15 10:15:22;;;;;;;28.97;18.47;;;6.20;99.90;;;;;;5088265;28;20683;-67
2022/11/15 10:18:15;;;;;;;30.63;18.20;;;6.20;99.90;;;;;;5086587;28;20200;-66
2022/11/15 10:20:58;;;;;;;34.47;21.07;;;6.20;99.90;;;;;;5089503;28;20208;-66
2022/11/15 10:23:25;;;;;;;33.73;20.23;;;6.20;99.90;;;;;;5091207;28;20198;-68
2022/11/15 10:25:54;;;;;;;37.47;21.10;;;6.20;99.90;;;;;;5089948;28;20200;-67
2022/11/15 10:28:26;;;;;;;38.87;23.10;;;6.20;99.90;;;;;;5090392;28;20675;-67
2022/11/15 10:30:55;;;;;;;34.53;20.20;;;6.30;99.90;;;;;;5091836;28;20192;-66
2022/11/15 10:33:27;;;;;;;35.50;19.97;;;6.30;99.90;;;;;;5090456;28;20361;-69
2022/11/15 10:36:18;;;;;;;35.43;21.90;;;6.30;99.90;;;;;;5091169;28;20200;-68
2022/11/15 10:38:57;;;;;;;33.73;20.60;;;6.30;99.90;;;;;;5089263;28;20206;-68
2022/11/15 10:41:31;;;;;;;37.03;22.40;;;6.30;99.90;;;;;;5091296;28;20620;-67
2022/11/15 10:44:12;;;;;;;38.70;22.73;;;6.20;99.90;;;;;;5095236;28;20192;-66
2022/11/15 10:46:41;;;;;;;37.63;22.73;;;6.30;99.90;;;;;;5090049;28;20215;-66
2022/11/15 10:49:15;;;;;;;37.13;21.33;;;6.30;99.90;;;;;;5095054;28;20206;-67
2022/11/15 10:51:47;;;;;;;34.70;21.67;;;6.20;99.90;;;;;;5095095;28;20189;-68
2022/11/15 10:54:17;;;;;;;38.40;21.30;;;6.30;99.90;;;;;;5095061;28;20596;-67
2022/11/15 10:56:49;;;;;;;38.07;22.03;;;6.20;99.90;;;;;;5094031;28;20641;-67
2022/11/15 10:59:24;;;;;;;35.23;21.57;;;6.20;99.90;;;;;;5094499;28;20192;-68
2022/11/15 11:01:51;;;;;;;40.40;23.53;;;6.20;99.90;;;;;;5094975;28;20714;-66
2022/11/15 11:04:18;;;;;;;43.37;24.37;;;6.20;99.90;;;;;;5094828;28;20290;-66
2022/11/15 11:06:51;;;;;;;40.73;23.80;;;6.20;99.90;;;;;;5092838;28;20243;-66
2022/11/15 11:09:32;;;;;;;38.30;22.30;;;6.20;99.90;;;;;;5093387;28;20660;-68
2022/11/15 11:12:00;;;;;;;39.37;23.73;;;6.20;99.90;;;;;;5085104;28;20224;-66
2022/11/15 11:14:30;;;;;;;42.30;25.07;;;6.30;99.90;;;;;;5094334;28;20240;-67
2022/11/15 11:17:05;;;;;;;44.47;24.67;;;6.30;99.90;;;;;;5092554;28;20200;-66
2022/11/15 11:19:50;;;;;;;41.73;24.43;;;6.30;99.90;;;;;;5094276;28;20199;-67
2022/11/15 11:22:27;;;;;;;49.57;26.37;;;6.40;99.90;;;;;;5094267;28;20379;-67
2022/11/15 11:25:06;;;;;;;49.50;27.07;;;6.40;99.90;;;;;;5092107;28;20227;-67
2022/11/15 11:27:43;;;;;;;44.90;27.27;;;6.40;99.90;;;;;;5093785;28;20314;-68
2022/11/15 11:30:16;;;;;;;43.67;25.83;;;6.40;99.90;;;;;;5094368;28;20544;-66
2022/11/15 11:33:08;;;;;;;42.47;25.40;;;6.40;99.90;;;;;;5094261;28;20683;-66
2022/11/15 11:35:44;;;;;;;53.00;25.93;;;6.40;99.90;;;;;;5092267;28;20228;-65
2022/11/15 11:38:33;;;;;;;46.40;25.23;;;6.50;99.90;;;;;;5093281;28;20203;-68
2022/11/15 11:41:07;;;;;;;48.67;26.03;;;6.40;99.90;;;;;;5093805;28;20192;-67
2022/11/15 11:43:45;;;;;;;39.57;23.97;;;6.40;99.90;;;;;;5093869;28;20651;-67
2022/11/15 11:46:34;;;;;;;47.43;25.73;;;6.40;99.90;;;;;;5091738;28;20206;-66
2022/11/15 11:49:09;;;;;;;47.20;27.10;;;6.40;99.90;;;;;;5093984;28;20206;-66
2022/11/15 11:51:42;;;;;;;49.67;27.50;;;6.40;99.90;;;;;;5093961;28;20204;-69
2022/11/15 11:54:15;;;;;;;46.47;26.10;;;6.40;99.90;;;;;;5093612;28;20194;-69
2022/11/15 11:56:45;;;;;;;42.53;24.60;;;6.40;99.90;;;;;;5092669;28;20200;-67
2022/11/15 11:59:20;;;;;;;46.07;26.37;;;6.40;99.90;;;;;;5093823;28;20208;-67
2022/11/15 12:01:46;;;;;;;44.33;25.00;;;6.40;99.90;;;;;;5093482;28;20590;-67
2022/11/15 12:04:19;;;;;;;42.30;24.07;;;6.40;99.90;;;;;;5093300;28;20210;-66
2022/11/15 12:06:51;;;;;;;42.37;24.63;;;6.50;99.90;;;;;;5091702;28;20235;-68
2022/11/15 12:09:24;;;;;;;45.27;25.87;;;6.50;99.90;;;;;;5093485;28;20279;-65
2022/11/15 12:11:57;;;;;;;41.40;24.30;;;6.40;99.90;;;;;;5093537;28;20303;-67
2022/11/15 12:14:32;;;;;;;41.00;24.87;;;6.40;99.90;;;;;;5093387;28;20196;-67
2022/11/15 12:16:59;;;;;;;42.97;25.50;;;6.40;99.90;;;;;;5088979;28;20265;-68
2022/11/15 12:19:26;;;;;;;42.87;24.43;;;6.40;99.90;;;;;;5092337;28;20632;-65
2022/11/15 12:22:00;;;;;;;40.77;24.33;;;6.40;99.90;;;;;;5092089;28;20570;-67
2022/11/15 12:24:30;;;;;;;45.23;25.70;;;6.50;99.90;;;;;;5090621;28;20188;-67
2022/11/15 12:27:04;;;;;;;41.27;24.50;;;6.50;99.90;;;;;;5089109;28;20224;-67
2022/11/15 12:29:38;;;;;;;41.40;24.77;;;6.50;99.90;;;;;;5092416;28;20189;-68
2022/11/15 12:32:13;;;;;;;41.60;24.07;;;6.50;99.90;;;;;;5103129;28;20205;-66
2022/11/15 12:34:44;;;;;;;39.37;22.27;;;6.60;99.90;;;;;;5113421;28;20197;-68
2022/11/15 12:37:50;;;;;;;40.30;24.03;;;6.70;99.90;;;;;;5108948;28;20206;-68
2022/11/15 12:40:37;;;;;;;39.07;23.17;;;6.70;99.90;;;;;;5084669;28;20211;-67
2022/11/15 12:43:40;;;;;;;35.80;22.03;;;6.70;99.90;;;;;;5088599;28;20747;-67
2022/11/15 12:46:13;;;;;;;36.47;22.23;;;6.80;99.90;;;;;;5089361;28;20200;-67
2022/11/15 12:48:49;;;;;;;32.50;21.33;;;6.80;99.90;;;;;;5093021;28;20211;-66
2022/11/15 12:51:16;;;;;;;37.53;22.90;;;6.90;99.90;;;;;;5092765;28;20572;-66
2022/11/15 12:53:43;;;;;;;34.03;21.70;;;6.80;99.90;;;;;;5089841;28;20219;-68
2022/11/15 12:56:23;;;;;;;37.37;23.57;;;6.90;99.90;;;;;;5092504;28;20204;-68
2022/11/15 12:58:56;;;;;;;32.73;21.17;;;6.90;99.90;;;;;;5092383;28;20188;-68
2022/11/15 13:01:58;;;;;;;35.60;23.53;;;6.90;99.90;;;;;;5089911;28;20669;-67
2022/11/15 13:04:27;;;;;;;35.40;21.10;;;6.90;99.90;;;;;;5090846;28;20204;-69
2022/11/15 13:06:56;;;;;;;33.40;21.37;;;7.00;99.90;;;;;;5092076;28;20620;-66
2022/11/15 13:09:52;;;;;;;33.97;21.33;;;7.00;99.90;;;;;;5092422;28;20633;-66
2022/11/15 13:12:52;;;;;;;33.90;21.80;;;7.10;99.90;;;;;;5090340;28;20276;-67
2022/11/15 13:15:56;;;;;;;29.87;20.60;;;7.10;99.90;;;;;;5091003;28;20218;-67
2022/11/15 13:18:35;;;;;;;38.63;22.63;;;7.10;99.90;;;;;;5092261;28;20227;-67
2022/11/15 13:22:50;;;;;;;32.07;20.57;;;7.10;99.90;;;;;;5090927;28;20586;-67
2022/11/15 13:23:54;;;;;;;34.83;21.97;;;7.10;99.90;;;;;;5087509;28;20270;-68
2022/11/15 13:26:21;;;;;;;35.00;22.27;;;7.20;99.90;;;;;;5091013;28;20537;-68
2022/11/15 13:28:54;;;;;;;34.73;22.00;;;7.20;99.90;;;;;;5089744;28;20681;-67
2022/11/15 13:31:34;;;;;;;39.13;24.53;;;7.10;99.90;;;;;;5090721;28;20195;-67
2022/11/15 13:34:04;;;;;;;37.20;23.03;;;7.10;99.90;;;;;;5072147;28;20668;-69
2022/11/15 13:36:33;;;;;;;35.67;21.70;;;7.20;99.90;;;;;;5072303;28;20567;-67
2022/11/15 13:39:02;;;;;;;35.07;21.40;;;7.10;99.90;;;;;;5072408;28;20205;-67
2022/11/15 13:41:32;;;;;;;34.90;21.80;;;7.20;99.90;;;;;;5071767;28;20205;-68
2022/11/15 13:44:01;;;;;;;34.87;21.50;;;7.20;99.90;;;;;;5092025;28;20218;-68
2022/11/15 13:46:29;;;;;;;54.87;33.90;;;7.20;99.90;;;;;;5092798;28;20675;-68
2022/11/15 13:48:58;;;;;;;35.77;22.67;;;7.20;99.90;;;;;;5092571;28;20227;-67
2022/11/15 13:51:33;;;;;;;34.70;21.43;;;7.30;99.90;;;;;;5092091;28;20210;-69
2022/11/15 13:54:04;;;;;;;35.67;21.57;;;7.30;99.90;;;;;;5091165;28;20218;-67
2022/11/15 13:56:34;;;;;;;34.50;21.63;;;7.30;99.90;;;;;;5092648;28;20198;-67
2022/11/15 13:59:08;;;;;;;34.87;21.03;;;7.30;99.90;;;;;;5084127;28;20226;-71
2022/11/15 14:01:35;;;;;;;34.23;22.13;;;7.30;99.90;;;;;;5091910;28;20209;-67
2022/11/15 14:04:03;;;;;;;57.97;34.90;;;7.20;99.90;;;;;;5089843;28;20228;-70
2022/11/15 14:06:31;;;;;;;36.07;23.10;;;7.30;99.90;;;;;;5087194;28;20232;-68
2022/11/15 14:09:02;;;;;;;38.57;23.80;;;7.30;99.90;;;;;;5088952;28;20231;-68
2022/11/15 14:11:30;;;;;;;39.93;23.63;;;7.30;99.90;;;;;;5091779;28;20216;-70
2022/11/15 14:14:15;;;;;;;35.80;23.43;;;7.30;99.90;;;;;;5088993;28;20200;-68
2022/11/15 14:16:44;;;;;;;39.87;24.27;;;7.30;99.90;;;;;;5090092;28;20261;-68
2022/11/15 14:19:14;;;;;;;41.43;23.93;;;7.40;99.90;;;;;;5096000;28;20228;-67
2022/11/15 14:22:15;;;;;;;39.07;25.13;;;7.40;99.90;;;;;;5093921;28;20227;-67
2022/11/15 14:24:44;;;;;;;40.60;25.37;;;7.40;99.90;;;;;;5095133;28;20187;-66
2022/11/15 14:27:23;;;;;;;40.23;25.43;;;7.40;99.90;;;;;;5094991;28;20699;-66
2022/11/15 14:29:52;;;;;;;39.23;24.17;;;7.40;99.90;;;;;;5094401;28;20633;-67
2022/11/15 14:32:22;;;;;;;39.23;25.23;;;7.40;99.90;;;;;;5095350;28;20641;-70
2022/11/15 14:34:50;;;;;;;38.20;24.57;;;7.40;99.90;;;;;;5095239;28;20234;-68
2022/11/15 14:37:22;;;;;;;34.83;22.73;;;7.40;99.90;;;;;;5095347;28;20201;-66
2022/11/15 14:54:25;;;;;;;45.90;29.17;;;7.30;99.90;;;;;;5150632;27;20586;-66
2022/11/15 14:56:51;;;;;;;49.77;30.70;;;7.50;99.90;;;;;;5150148;27;20314;-67
2022/11/15 14:59:18;;;;;;;49.87;29.57;;;7.50;99.90;;;;;;5145983;27;20218;-69
2022/11/15 15:01:45;;;;;;;53.30;30.90;;;7.50;99.90;;;;;;5147998;27;20204;-66
2022/11/15 15:04:12;;;;;;;45.07;29.17;;;7.50;99.90;;;;;;5138358;27;20206;-69
2022/11/15 15:06:39;;;;;;;43.40;26.97;;;7.50;99.90;;;;;;5149090;27;20651;-67
2022/11/15 15:09:05;;;;;;;40.70;25.63;;;7.50;99.90;;;;;;5163461;27;20197;-67
2022/11/15 15:11:34;;;;;;;44.37;26.73;;;7.50;99.90;;;;;;5171394;27;20205;-66
2022/11/15 15:14:01;;;;;;;40.73;24.80;;;7.50;99.90;;;;;;5155793;27;20218;-67
2022/11/15 15:16:28;;;;;;;41.83;27.07;;;7.50;99.90;;;;;;5143848;27;20198;-67
2022/11/15 15:18:55;;;;;;;43.20;26.57;;;7.50;99.90;;;;;;5141219;27;20198;-67
2022/11/15 15:21:24;;;;;;;39.13;24.67;;;7.50;99.90;;;;;;5149996;27;20212;-68
2022/11/15 15:23:51;;;;;;;44.43;26.00;;;7.50;99.90;;;;;;5147817;27;20218;-68
2022/11/15 15:26:18;;;;;;;41.10;25.57;;;7.50;99.90;;;;;;5150691;27;20568;-66
2022/11/15 15:28:48;;;;;;;38.17;24.73;;;7.50;99.90;;;;;;5150116;27;20202;-68
2022/11/15 15:31:15;;;;;;;44.20;25.73;;;7.50;99.90;;;;;;5150276;27;20224;-66
2022/11/15 15:33:42;;;;;;;39.33;25.57;;;7.60;99.90;;;;;;5148377;27;20198;-67
2022/11/15 15:36:12;;;;;;;40.23;24.60;;;7.60;99.90;;;;;;5149727;27;20198;-67
2022/11/15 15:38:39;;;;;;;41.47;25.00;;;7.60;99.90;;;;;;5149529;27;20284;-69
2022/11/15 15:41:10;;;;;;;40.63;26.07;;;7.50;99.90;;;;;;5134212;27;20202;-68
2022/11/15 15:43:37;;;;;;;42.03;25.87;;;7.50;99.90;;;;;;5153712;27;20210;-68
2022/11/15 15:59:01;;;;;;;38.33;24.67;;;7.60;99.90;;;;;;5135114;27;20533;-65
2022/11/15 16:01:28;;;;;;;38.83;23.47;;;7.80;99.90;;;;;;5133174;27;20206;-64
2022/11/15 16:03:54;;;;;;;39.63;23.97;;;7.90;99.90;;;;;;5130949;27;20694;-66
2022/11/15 16:06:38;;;;;;;41.37;24.83;;;7.90;99.90;;;;;;5127401;28;20594;-64
2022/11/15 16:09:06;;;;;;;42.50;26.40;;;7.90;99.90;;;;;;5128055;28;20202;-67
2022/11/15 16:11:32;;;;;;;40.43;25.13;;;7.90;99.90;;;;;;5130010;28;20203;-65
2022/11/15 16:14:01;;;;;;;41.30;25.90;;;7.80;99.90;;;;;;5131905;27;20202;-68
2022/11/15 16:16:28;;;;;;;42.67;26.80;;;7.80;99.90;;;;;;5131750;27;20648;-64
2022/11/15 16:18:55;;;;;;;42.17;26.10;;;7.80;99.90;;;;;;5126901;28;20667;-66
2022/11/15 16:21:21;;;;;;;43.13;26.20;;;7.80;99.90;;;;;;5131601;27;20199;-67